sensor_id;sensor_type;location;lat;lon;timestamp;P1;durP1;ratioP1;P2;durP2;ratioP2
3997;SDS011;61314;53.444;9.902;2022-10-24T00:01:15;3.50;;;3.20;;
3997;SDS011;61314;53.444;9.902;2022-10-24T00:03:43;3.77;;;3.00;;
3997;SDS011;61314;53.444;9.902;2022-10-24T00:06:10;4.10;;;3.80;;
3997;SDS011;61314;53.444;9.902;2022-10-24T00:08:38;3.03;;;2.83;;
3997;SDS011;61314;53.444;9.902;2022-10-24T00:11:09;4.13;;;3.47;;
3997;SDS011;61314;53.444;9.902;2022-10-24T00:13:37;2.83;;;2.63;;
3997;SDS011;61314;53.444;9.902;2022-10-24T00:16:04;6.70;;;3.17;;
3997;SDS011;61314;53.444;9.902;2022-10-24T00:18:31;6.30;;;3.87;;
3997;SDS011;61314;53.444;9.902;2022-10-24T00:20:58;4.30;;;3.90;;
3997;SDS011;61314;53.444;9.902;2022-10-24T00:23:25;3.63;;;3.33;;
3997;SDS011;61314;53.444;9.902;2022-10-24T00:25:52;10.20;;;3.80;;
3997;SDS011;61314;53.444;9.902;2022-10-24T00:28:19;8.77;;;3.57;;
3997;SDS011;61314;53.444;9.902;2022-10-24T00:30:49;6.03;;;3.33;;
3997;SDS011;61314;53.444;9.902;2022-10-24T00:33:17;3.93;;;3.63;;
3997;SDS011;61314;53.444;9.902;2022-10-24T00:35:44;4.83;;;3.80;;
3997;SDS011;61314;53.444;9.902;2022-10-24T00:38:11;4.50;;;3.10;;
3997;SDS011;61314;53.444;9.902;2022-10-24T00:40:38;3.10;;;2.90;;
3997;SDS011;61314;53.444;9.902;2022-10-24T00:43:11;8.97;;;3.33;;
3997;SDS011;61314;53.444;9.902;2022-10-24T00:45:49;3.90;;;3.50;;
3997;SDS011;61314;53.444;9.902;2022-10-24T00:48:21;5.77;;;3.33;;
3997;SDS011;61314;53.444;9.902;2022-10-24T00:50:50;3.80;;;2.93;;
3997;SDS011;61314;53.444;9.902;2022-10-24T00:53:19;5.00;;;3.10;;
3997;SDS011;61314;53.444;9.902;2022-10-24T00:55:47;6.47;;;3.70;;
3997;SDS011;61314;53.444;9.902;2022-10-24T00:58:15;3.37;;;3.17;;
3997;SDS011;61314;53.444;9.902;2022-10-24T01:00:43;4.80;;;2.90;;
3997;SDS011;61314;53.444;9.902;2022-10-24T01:03:10;3.20;;;3.00;;
3997;SDS011;61314;53.444;9.902;2022-10-24T01:05:46;8.30;;;2.80;;
3997;SDS011;61314;53.444;9.902;2022-10-24T01:18:14;5.23;;;3.37;;
3997;SDS011;61314;53.444;9.902;2022-10-24T01:23:27;4.33;;;3.43;;
3997;SDS011;61314;53.444;9.902;2022-10-24T01:28:42;4.10;;;3.13;;
3997;SDS011;61314;53.444;9.902;2022-10-24T01:31:12;3.23;;;3.03;;
3997;SDS011;61314;53.444;9.902;2022-10-24T01:33:52;4.97;;;3.70;;
3997;SDS011;61314;53.444;9.902;2022-10-24T01:36:26;3.33;;;2.73;;
3997;SDS011;61314;53.444;9.902;2022-10-24T01:38:55;5.67;;;3.10;;
3997;SDS011;61314;53.444;9.902;2022-10-24T01:41:24;3.80;;;3.57;;
3997;SDS011;61314;53.444;9.902;2022-10-24T01:43:57;8.40;;;3.30;;
3997;SDS011;61314;53.444;9.902;2022-10-24T01:46:28;6.87;;;3.00;;
3997;SDS011;61314;53.444;9.902;2022-10-24T01:48:58;4.17;;;2.90;;
3997;SDS011;61314;53.444;9.902;2022-10-24T01:51:28;6.67;;;3.50;;
3997;SDS011;61314;53.444;9.902;2022-10-24T01:53:55;8.33;;;3.67;;
3997;SDS011;61314;53.444;9.902;2022-10-24T01:56:24;5.30;;;3.10;;
3997;SDS011;61314;53.444;9.902;2022-10-24T01:58:51;9.13;;;2.73;;
3997;SDS011;61314;53.444;9.902;2022-10-24T02:01:20;5.77;;;2.80;;
3997;SDS011;61314;53.444;9.902;2022-10-24T02:03:49;3.83;;;2.90;;
3997;SDS011;61314;53.444;9.902;2022-10-24T02:06:24;5.83;;;2.50;;
3997;SDS011;61314;53.444;9.902;2022-10-24T02:08:54;2.90;;;2.67;;
3997;SDS011;61314;53.444;9.902;2022-10-24T02:11:23;4.50;;;3.00;;
3997;SDS011;61314;53.444;9.902;2022-10-24T02:16:18;3.17;;;2.97;;
3997;SDS011;61314;53.444;9.902;2022-10-24T02:18:46;9.03;;;3.40;;
3997;SDS011;61314;53.444;9.902;2022-10-24T02:23:51;3.30;;;3.10;;
3997;SDS011;61314;53.444;9.902;2022-10-24T02:26:21;7.10;;;3.40;;
3997;SDS011;61314;53.444;9.902;2022-10-24T02:28:51;3.83;;;3.10;;
3997;SDS011;61314;53.444;9.902;2022-10-24T02:31:19;3.20;;;3.00;;
3997;SDS011;61314;53.444;9.902;2022-10-24T02:33:48;3.10;;;2.90;;
3997;SDS011;61314;53.444;9.902;2022-10-24T02:36:18;11.03;;;3.53;;
3997;SDS011;61314;53.444;9.902;2022-10-24T02:38:46;4.47;;;3.40;;
3997;SDS011;61314;53.444;9.902;2022-10-24T02:41:15;11.07;;;2.83;;
3997;SDS011;61314;53.444;9.902;2022-10-24T02:43:46;9.17;;;3.47;;
3997;SDS011;61314;53.444;9.902;2022-10-24T02:46:15;6.53;;;3.27;;
3997;SDS011;61314;53.444;9.902;2022-10-24T02:48:44;3.73;;;3.43;;
3997;SDS011;61314;53.444;9.902;2022-10-24T02:51:13;5.93;;;3.40;;
3997;SDS011;61314;53.444;9.902;2022-10-24T02:53:41;3.53;;;3.30;;
3997;SDS011;61314;53.444;9.902;2022-10-24T02:56:08;5.93;;;3.33;;
3997;SDS011;61314;53.444;9.902;2022-10-24T02:58:35;5.17;;;3.10;;
3997;SDS011;61314;53.444;9.902;2022-10-24T03:01:02;5.67;;;4.30;;
3997;SDS011;61314;53.444;9.902;2022-10-24T03:03:29;9.23;;;3.53;;
3997;SDS011;61314;53.444;9.902;2022-10-24T03:05:56;6.60;;;3.43;;
3997;SDS011;61314;53.444;9.902;2022-10-24T03:08:23;5.30;;;3.13;;
3997;SDS011;61314;53.444;9.902;2022-10-24T03:10:50;5.40;;;3.43;;
3997;SDS011;61314;53.444;9.902;2022-10-24T03:13:17;6.90;;;3.30;;
3997;SDS011;61314;53.444;9.902;2022-10-24T03:15:44;4.60;;;4.10;;
3997;SDS011;61314;53.444;9.902;2022-10-24T03:18:16;4.40;;;3.03;;
3997;SDS011;61314;53.444;9.902;2022-10-24T03:20:43;3.73;;;3.43;;
3997;SDS011;61314;53.444;9.902;2022-10-24T03:23:10;4.83;;;3.80;;
3997;SDS011;61314;53.444;9.902;2022-10-24T03:25:37;5.00;;;3.50;;
3997;SDS011;61314;53.444;9.902;2022-10-24T03:28:04;6.10;;;3.93;;
3997;SDS011;61314;53.444;9.902;2022-10-24T03:30:31;5.33;;;4.27;;
3997;SDS011;61314;53.444;9.902;2022-10-24T03:32:58;7.13;;;4.03;;
3997;SDS011;61314;53.444;9.902;2022-10-24T03:35:25;8.23;;;4.50;;
3997;SDS011;61314;53.444;9.902;2022-10-24T03:37:52;7.00;;;3.97;;
3997;SDS011;61314;53.444;9.902;2022-10-24T03:40:19;9.50;;;4.87;;
3997;SDS011;61314;53.444;9.902;2022-10-24T03:42:46;4.23;;;3.77;;
3997;SDS011;61314;53.444;9.902;2022-10-24T03:45:13;5.00;;;3.70;;
3997;SDS011;61314;53.444;9.902;2022-10-24T03:47:40;5.10;;;4.70;;
3997;SDS011;61314;53.444;9.902;2022-10-24T03:50:07;4.40;;;3.97;;
3997;SDS011;61314;53.444;9.902;2022-10-24T03:52:34;6.60;;;3.93;;
3997;SDS011;61314;53.444;9.902;2022-10-24T03:55:02;9.57;;;4.43;;
3997;SDS011;61314;53.444;9.902;2022-10-24T03:57:29;7.20;;;3.63;;
3997;SDS011;61314;53.444;9.902;2022-10-24T03:59:56;5.73;;;3.33;;
3997;SDS011;61314;53.444;9.902;2022-10-24T04:02:26;4.73;;;4.43;;
3997;SDS011;61314;53.444;9.902;2022-10-24T04:04:53;7.33;;;3.93;;
3997;SDS011;61314;53.444;9.902;2022-10-24T04:07:20;4.33;;;3.97;;
3997;SDS011;61314;53.444;9.902;2022-10-24T04:09:47;7.57;;;4.20;;
3997;SDS011;61314;53.444;9.902;2022-10-24T04:12:14;6.00;;;4.00;;
3997;SDS011;61314;53.444;9.902;2022-10-24T04:14:41;3.90;;;3.70;;
3997;SDS011;61314;53.444;9.902;2022-10-24T04:17:08;6.27;;;4.07;;
3997;SDS011;61314;53.444;9.902;2022-10-24T04:19:35;8.07;;;3.80;;
3997;SDS011;61314;53.444;9.902;2022-10-24T04:22:02;11.70;;;4.50;;
3997;SDS011;61314;53.444;9.902;2022-10-24T04:24:29;5.20;;;4.10;;
3997;SDS011;61314;53.444;9.902;2022-10-24T04:26:56;5.47;;;4.20;;
3997;SDS011;61314;53.444;9.902;2022-10-24T04:29:23;10.30;;;3.73;;
3997;SDS011;61314;53.444;9.902;2022-10-24T04:31:50;8.33;;;4.27;;
3997;SDS011;61314;53.444;9.902;2022-10-24T04:34:17;23.23;;;3.80;;
3997;SDS011;61314;53.444;9.902;2022-10-24T04:36:44;8.37;;;3.33;;
3997;SDS011;61314;53.444;9.902;2022-10-24T04:39:11;5.10;;;4.60;;
3997;SDS011;61314;53.444;9.902;2022-10-24T04:41:38;10.43;;;4.03;;
3997;SDS011;61314;53.444;9.902;2022-10-24T04:44:05;4.57;;;4.17;;
3997;SDS011;61314;53.444;9.902;2022-10-24T04:46:32;7.70;;;3.50;;
3997;SDS011;61314;53.444;9.902;2022-10-24T04:48:59;8.53;;;4.27;;
3997;SDS011;61314;53.444;9.902;2022-10-24T04:51:26;4.37;;;4.07;;
3997;SDS011;61314;53.444;9.902;2022-10-24T04:53:53;3.57;;;3.37;;
3997;SDS011;61314;53.444;9.902;2022-10-24T04:56:20;7.17;;;4.00;;
3997;SDS011;61314;53.444;9.902;2022-10-24T04:58:47;7.33;;;4.80;;
3997;SDS011;61314;53.444;9.902;2022-10-24T05:01:15;5.20;;;3.97;;
3997;SDS011;61314;53.444;9.902;2022-10-24T05:03:42;8.77;;;4.03;;
3997;SDS011;61314;53.444;9.902;2022-10-24T05:06:09;10.30;;;3.97;;
3997;SDS011;61314;53.444;9.902;2022-10-24T05:08:36;4.90;;;4.30;;
3997;SDS011;61314;53.444;9.902;2022-10-24T05:11:03;6.30;;;4.20;;
3997;SDS011;61314;53.444;9.902;2022-10-24T05:13:30;4.87;;;4.23;;
3997;SDS011;61314;53.444;9.902;2022-10-24T05:16:02;11.43;;;4.10;;
3997;SDS011;61314;53.444;9.902;2022-10-24T05:18:29;12.27;;;5.07;;
3997;SDS011;61314;53.444;9.902;2022-10-24T05:20:56;4.27;;;3.97;;
3997;SDS011;61314;53.444;9.902;2022-10-24T05:23:23;6.50;;;4.10;;
3997;SDS011;61314;53.444;9.902;2022-10-24T05:25:51;7.23;;;4.00;;
3997;SDS011;61314;53.444;9.902;2022-10-24T05:28:18;9.77;;;4.40;;
3997;SDS011;61314;53.444;9.902;2022-10-24T05:30:45;7.63;;;3.67;;
3997;SDS011;61314;53.444;9.902;2022-10-24T05:33:12;8.50;;;4.53;;
3997;SDS011;61314;53.444;9.902;2022-10-24T05:35:39;9.27;;;4.70;;
3997;SDS011;61314;53.444;9.902;2022-10-24T05:38:06;8.73;;;4.07;;
3997;SDS011;61314;53.444;9.902;2022-10-24T05:40:33;5.23;;;4.20;;
3997;SDS011;61314;53.444;9.902;2022-10-24T05:43:00;8.40;;;4.10;;
3997;SDS011;61314;53.444;9.902;2022-10-24T05:45:27;10.70;;;3.93;;
3997;SDS011;61314;53.444;9.902;2022-10-24T05:47:54;7.93;;;3.90;;
3997;SDS011;61314;53.444;9.902;2022-10-24T05:50:21;4.70;;;4.23;;
3997;SDS011;61314;53.444;9.902;2022-10-24T05:52:48;8.13;;;3.63;;
3997;SDS011;61314;53.444;9.902;2022-10-24T05:55:15;3.77;;;3.50;;
3997;SDS011;61314;53.444;9.902;2022-10-24T05:57:43;4.93;;;3.90;;
3997;SDS011;61314;53.444;9.902;2022-10-24T06:00:12;4.93;;;4.40;;
3997;SDS011;61314;53.444;9.902;2022-10-24T06:02:40;6.40;;;4.10;;
3997;SDS011;61314;53.444;9.902;2022-10-24T06:05:07;4.33;;;3.90;;
3997;SDS011;61314;53.444;9.902;2022-10-24T06:07:34;7.00;;;4.43;;
3997;SDS011;61314;53.444;9.902;2022-10-24T06:10:02;7.30;;;4.17;;
3997;SDS011;61314;53.444;9.902;2022-10-24T06:12:30;9.40;;;4.97;;
3997;SDS011;61314;53.444;9.902;2022-10-24T06:14:58;9.67;;;5.77;;
3997;SDS011;61314;53.444;9.902;2022-10-24T06:17:25;7.53;;;4.90;;
3997;SDS011;61314;53.444;9.902;2022-10-24T06:19:52;7.73;;;5.07;;
3997;SDS011;61314;53.444;9.902;2022-10-24T06:22:19;7.20;;;4.33;;
3997;SDS011;61314;53.444;9.902;2022-10-24T06:24:49;9.33;;;4.87;;
3997;SDS011;61314;53.444;9.902;2022-10-24T06:27:16;8.23;;;5.20;;
3997;SDS011;61314;53.444;9.902;2022-10-24T06:29:43;10.60;;;4.47;;
3997;SDS011;61314;53.444;9.902;2022-10-24T06:32:10;6.50;;;4.90;;
3997;SDS011;61314;53.444;9.902;2022-10-24T06:34:37;10.83;;;5.27;;
3997;SDS011;61314;53.444;9.902;2022-10-24T06:37:04;14.73;;;5.30;;
3997;SDS011;61314;53.444;9.902;2022-10-24T06:39:31;10.30;;;4.73;;
3997;SDS011;61314;53.444;9.902;2022-10-24T06:41:59;6.90;;;4.60;;
3997;SDS011;61314;53.444;9.902;2022-10-24T06:44:26;9.53;;;5.57;;
3997;SDS011;61314;53.444;9.902;2022-10-24T06:46:53;14.20;;;5.30;;
3997;SDS011;61314;53.444;9.902;2022-10-24T06:49:20;10.90;;;5.07;;
3997;SDS011;61314;53.444;9.902;2022-10-24T06:51:47;13.23;;;4.17;;
3997;SDS011;61314;53.444;9.902;2022-10-24T06:54:14;5.83;;;4.60;;
3997;SDS011;61314;53.444;9.902;2022-10-24T06:56:41;7.30;;;5.00;;
3997;SDS011;61314;53.444;9.902;2022-10-24T06:59:09;8.63;;;5.20;;
3997;SDS011;61314;53.444;9.902;2022-10-24T07:01:36;10.83;;;5.70;;
3997;SDS011;61314;53.444;9.902;2022-10-24T07:04:03;12.47;;;5.63;;
3997;SDS011;61314;53.444;9.902;2022-10-24T07:06:30;6.10;;;4.53;;
3997;SDS011;61314;53.444;9.902;2022-10-24T07:08:58;12.00;;;5.37;;
3997;SDS011;61314;53.444;9.902;2022-10-24T07:11:26;10.07;;;5.47;;
3997;SDS011;61314;53.444;9.902;2022-10-24T07:13:53;9.90;;;4.80;;
3997;SDS011;61314;53.444;9.902;2022-10-24T07:16:26;9.60;;;4.63;;
3997;SDS011;61314;53.444;9.902;2022-10-24T07:18:53;13.63;;;4.90;;
3997;SDS011;61314;53.444;9.902;2022-10-24T07:21:22;6.33;;;4.70;;
3997;SDS011;61314;53.444;9.902;2022-10-24T07:23:49;8.80;;;4.70;;
3997;SDS011;61314;53.444;9.902;2022-10-24T07:26:17;7.90;;;4.17;;
3997;SDS011;61314;53.444;9.902;2022-10-24T07:28:45;10.93;;;4.33;;
3997;SDS011;61314;53.444;9.902;2022-10-24T07:31:15;7.93;;;5.13;;
3997;SDS011;61314;53.444;9.902;2022-10-24T07:33:42;10.83;;;4.63;;
3997;SDS011;61314;53.444;9.902;2022-10-24T07:36:14;7.70;;;4.83;;
3997;SDS011;61314;53.444;9.902;2022-10-24T07:38:41;16.27;;;4.80;;
3997;SDS011;61314;53.444;9.902;2022-10-24T07:41:08;8.10;;;7.10;;
3997;SDS011;61314;53.444;9.902;2022-10-24T07:43:35;8.30;;;4.73;;
3997;SDS011;61314;53.444;9.902;2022-10-24T07:46:09;8.90;;;5.50;;
3997;SDS011;61314;53.444;9.902;2022-10-24T07:48:36;5.67;;;4.87;;
3997;SDS011;61314;53.444;9.902;2022-10-24T07:51:05;8.80;;;4.27;;
3997;SDS011;61314;53.444;9.902;2022-10-24T07:53:32;7.83;;;4.63;;
3997;SDS011;61314;53.444;9.902;2022-10-24T07:55:59;14.37;;;5.00;;
3997;SDS011;61314;53.444;9.902;2022-10-24T07:58:26;4.90;;;4.47;;
3997;SDS011;61314;53.444;9.902;2022-10-24T08:00:54;12.10;;;4.97;;
3997;SDS011;61314;53.444;9.902;2022-10-24T08:03:21;7.47;;;5.30;;
3997;SDS011;61314;53.444;9.902;2022-10-24T08:05:48;6.40;;;4.87;;
3997;SDS011;61314;53.444;9.902;2022-10-24T08:08:15;7.33;;;4.37;;
3997;SDS011;61314;53.444;9.902;2022-10-24T08:11:08;9.67;;;4.30;;
3997;SDS011;61314;53.444;9.902;2022-10-24T08:13:36;19.67;;;5.30;;
3997;SDS011;61314;53.444;9.902;2022-10-24T08:16:03;12.63;;;4.57;;
3997;SDS011;61314;53.444;9.902;2022-10-24T08:18:31;7.20;;;4.70;;
3997;SDS011;61314;53.444;9.902;2022-10-24T08:21:05;8.63;;;4.97;;
3997;SDS011;61314;53.444;9.902;2022-10-24T08:23:32;6.50;;;4.27;;
3997;SDS011;61314;53.444;9.902;2022-10-24T08:26:02;6.30;;;5.13;;
3997;SDS011;61314;53.444;9.902;2022-10-24T08:28:29;5.63;;;4.10;;
3997;SDS011;61314;53.444;9.902;2022-10-24T08:30:57;10.57;;;5.03;;
3997;SDS011;61314;53.444;9.902;2022-10-24T08:33:25;6.77;;;4.40;;
3997;SDS011;61314;53.444;9.902;2022-10-24T08:35:53;8.00;;;4.57;;
3997;SDS011;61314;53.444;9.902;2022-10-24T08:38:22;7.67;;;4.50;;
3997;SDS011;61314;53.444;9.902;2022-10-24T08:40:49;8.20;;;4.23;;
3997;SDS011;61314;53.444;9.902;2022-10-24T08:43:17;9.97;;;4.20;;
3997;SDS011;61314;53.444;9.902;2022-10-24T08:45:54;11.47;;;4.13;;
3997;SDS011;61314;53.444;9.902;2022-10-24T08:48:28;13.50;;;4.73;;
3997;SDS011;61314;53.444;9.902;2022-10-24T08:51:10;7.00;;;4.33;;
3997;SDS011;61314;53.444;9.902;2022-10-24T08:53:39;14.70;;;3.60;;
3997;SDS011;61314;53.444;9.902;2022-10-24T08:56:07;11.73;;;3.93;;
3997;SDS011;61314;53.444;9.902;2022-10-24T08:58:36;9.40;;;4.30;;
3997;SDS011;61314;53.444;9.902;2022-10-24T09:01:06;4.17;;;3.07;;
3997;SDS011;61314;53.444;9.902;2022-10-24T09:03:49;8.10;;;4.03;;
3997;SDS011;61314;53.444;9.902;2022-10-24T09:06:25;13.90;;;3.93;;
3997;SDS011;61314;53.444;9.902;2022-10-24T09:08:54;5.90;;;3.60;;
3997;SDS011;61314;53.444;9.902;2022-10-24T09:11:30;3.17;;;2.83;;
3997;SDS011;61314;53.444;9.902;2022-10-24T09:14:12;13.00;;;5.07;;
3997;SDS011;61314;53.444;9.902;2022-10-24T09:16:40;12.77;;;3.63;;
3997;SDS011;61314;53.444;9.902;2022-10-24T09:19:09;8.10;;;3.30;;
3997;SDS011;61314;53.444;9.902;2022-10-24T09:21:39;7.90;;;3.67;;
3997;SDS011;61314;53.444;9.902;2022-10-24T09:24:09;8.83;;;3.57;;
3997;SDS011;61314;53.444;9.902;2022-10-24T09:26:41;4.20;;;3.50;;
3997;SDS011;61314;53.444;9.902;2022-10-24T09:29:10;8.50;;;3.60;;
3997;SDS011;61314;53.444;9.902;2022-10-24T09:31:37;3.47;;;3.17;;
3997;SDS011;61314;53.444;9.902;2022-10-24T09:34:05;5.43;;;3.00;;
3997;SDS011;61314;53.444;9.902;2022-10-24T09:36:32;14.73;;;3.27;;
3997;SDS011;61314;53.444;9.902;2022-10-24T09:41:45;6.43;;;3.43;;
3997;SDS011;61314;53.444;9.902;2022-10-24T09:44:26;10.33;;;3.30;;
3997;SDS011;61314;53.444;9.902;2022-10-24T09:46:53;5.93;;;3.37;;
3997;SDS011;61314;53.444;9.902;2022-10-24T09:49:21;6.80;;;3.10;;
3997;SDS011;61314;53.444;9.902;2022-10-24T09:51:49;9.93;;;3.50;;
3997;SDS011;61314;53.444;9.902;2022-10-24T09:54:25;11.63;;;2.73;;
3997;SDS011;61314;53.444;9.902;2022-10-24T09:56:57;9.70;;;3.23;;
3997;SDS011;61314;53.444;9.902;2022-10-24T10:01:51;4.73;;;2.73;;
3997;SDS011;61314;53.444;9.902;2022-10-24T10:04:19;4.80;;;2.60;;
3997;SDS011;61314;53.444;9.902;2022-10-24T10:06:46;7.80;;;3.40;;
3997;SDS011;61314;53.444;9.902;2022-10-24T10:09:15;6.60;;;3.07;;
3997;SDS011;61314;53.444;9.902;2022-10-24T10:11:42;4.90;;;2.83;;
3997;SDS011;61314;53.444;9.902;2022-10-24T10:14:27;12.23;;;3.20;;
3997;SDS011;61314;53.444;9.902;2022-10-24T10:16:59;8.07;;;3.20;;
3997;SDS011;61314;53.444;9.902;2022-10-24T10:19:34;16.50;;;2.40;;
3997;SDS011;61314;53.444;9.902;2022-10-24T10:22:03;5.33;;;2.20;;
3997;SDS011;61314;53.444;9.902;2022-10-24T10:24:40;8.40;;;3.30;;
3997;SDS011;61314;53.444;9.902;2022-10-24T10:32:52;5.37;;;2.57;;
3997;SDS011;61314;53.444;9.902;2022-10-24T10:38:15;6.30;;;2.97;;
3997;SDS011;61314;53.444;9.902;2022-10-24T10:40:39;8.70;;;2.70;;
3997;SDS011;61314;53.444;9.902;2022-10-24T10:43:31;9.53;;;2.30;;
3997;SDS011;61314;53.444;9.902;2022-10-24T10:46:15;9.97;;;3.07;;
3997;SDS011;61314;53.444;9.902;2022-10-24T10:48:54;6.20;;;2.10;;
3997;SDS011;61314;53.444;9.902;2022-10-24T10:54:15;2.73;;;2.23;;
3997;SDS011;61314;53.444;9.902;2022-10-24T11:02:07;10.93;;;2.30;;
3997;SDS011;61314;53.444;9.902;2022-10-24T11:04:41;4.60;;;2.60;;
3997;SDS011;61314;53.444;9.902;2022-10-24T11:07:25;7.33;;;2.70;;
3997;SDS011;61314;53.444;9.902;2022-10-24T11:10:02;2.40;;;1.60;;
3997;SDS011;61314;53.444;9.902;2022-10-24T11:12:33;14.20;;;2.30;;
3997;SDS011;61314;53.444;9.902;2022-10-24T11:17:46;1.97;;;1.63;;
3997;SDS011;61314;53.444;9.902;2022-10-24T11:22:58;3.57;;;2.10;;
3997;SDS011;61314;53.444;9.902;2022-10-24T11:28:29;5.37;;;1.73;;
3997;SDS011;61314;53.444;9.902;2022-10-24T11:31:11;3.93;;;1.57;;
3997;SDS011;61314;53.444;9.902;2022-10-24T11:33:46;7.43;;;1.73;;
3997;SDS011;61314;53.444;9.902;2022-10-24T11:38:54;4.27;;;1.73;;
3997;SDS011;61314;53.444;9.902;2022-10-24T11:41:36;4.83;;;2.03;;
3997;SDS011;61314;53.444;9.902;2022-10-24T11:44:11;8.73;;;2.60;;
3997;SDS011;61314;53.444;9.902;2022-10-24T11:46:41;10.20;;;1.70;;
3997;SDS011;61314;53.444;9.902;2022-10-24T11:49:18;5.97;;;1.67;;
3997;SDS011;61314;53.444;9.902;2022-10-24T11:51:53;5.30;;;1.70;;
3997;SDS011;61314;53.444;9.902;2022-10-24T11:54:25;8.80;;;2.17;;
3997;SDS011;61314;53.444;9.902;2022-10-24T11:56:57;5.80;;;1.67;;
3997;SDS011;61314;53.444;9.902;2022-10-24T11:59:25;6.60;;;1.90;;
3997;SDS011;61314;53.444;9.902;2022-10-24T12:02:03;7.87;;;1.70;;
3997;SDS011;61314;53.444;9.902;2022-10-24T12:04:52;2.00;;;1.20;;
3997;SDS011;61314;53.444;9.902;2022-10-24T12:07:36;7.13;;;1.93;;
3997;SDS011;61314;53.444;9.902;2022-10-24T12:12:47;3.57;;;1.33;;
3997;SDS011;61314;53.444;9.902;2022-10-24T12:18:10;6.43;;;1.60;;
3997;SDS011;61314;53.444;9.902;2022-10-24T12:20:39;11.57;;;2.20;;
3997;SDS011;61314;53.444;9.902;2022-10-24T12:23:06;7.10;;;1.90;;
3997;SDS011;61314;53.444;9.902;2022-10-24T12:25:43;5.97;;;1.57;;
3997;SDS011;61314;53.444;9.902;2022-10-24T12:28:20;9.80;;;1.83;;
3997;SDS011;61314;53.444;9.902;2022-10-24T12:33:33;7.23;;;1.93;;
3997;SDS011;61314;53.444;9.902;2022-10-24T12:36:00;2.83;;;1.50;;
3997;SDS011;61314;53.444;9.902;2022-10-24T12:41:01;3.53;;;1.30;;
3997;SDS011;61314;53.444;9.902;2022-10-24T12:43:35;3.53;;;1.63;;
3997;SDS011;61314;53.444;9.902;2022-10-24T12:56:31;4.97;;;1.70;;
3997;SDS011;61314;53.444;9.902;2022-10-24T13:01:45;5.73;;;1.47;;
3997;SDS011;61314;53.444;9.902;2022-10-24T13:04:27;6.00;;;1.57;;
3997;SDS011;61314;53.444;9.902;2022-10-24T13:12:37;6.70;;;1.50;;
3997;SDS011;61314;53.444;9.902;2022-10-24T13:17:45;3.43;;;1.60;;
3997;SDS011;61314;53.444;9.902;2022-10-24T13:20:15;2.60;;;1.50;;
3997;SDS011;61314;53.444;9.902;2022-10-24T13:22:44;4.30;;;1.60;;
3997;SDS011;61314;53.444;9.902;2022-10-24T13:27:45;3.23;;;1.43;;
3997;SDS011;61314;53.444;9.902;2022-10-24T13:30:22;4.77;;;1.67;;
3997;SDS011;61314;53.444;9.902;2022-10-24T13:32:50;2.97;;;2.30;;
3997;SDS011;61314;53.444;9.902;2022-10-24T13:35:19;5.43;;;1.73;;
3997;SDS011;61314;53.444;9.902;2022-10-24T13:37:49;3.23;;;1.00;;
3997;SDS011;61314;53.444;9.902;2022-10-24T13:40:27;7.70;;;1.57;;
3997;SDS011;61314;53.444;9.902;2022-10-24T13:42:58;4.93;;;1.80;;
3997;SDS011;61314;53.444;9.902;2022-10-24T13:45:39;6.27;;;1.60;;
3997;SDS011;61314;53.444;9.902;2022-10-24T13:48:08;5.60;;;1.73;;
3997;SDS011;61314;53.444;9.902;2022-10-24T13:50:45;10.97;;;1.83;;
3997;SDS011;61314;53.444;9.902;2022-10-24T13:53:15;6.37;;;1.70;;
3997;SDS011;61314;53.444;9.902;2022-10-24T13:55:54;3.50;;;1.60;;
3997;SDS011;61314;53.444;9.902;2022-10-24T13:58:23;4.97;;;1.77;;
3997;SDS011;61314;53.444;9.902;2022-10-24T14:00:54;3.30;;;1.97;;
3997;SDS011;61314;53.444;9.902;2022-10-24T14:03:23;6.50;;;2.63;;
3997;SDS011;61314;53.444;9.902;2022-10-24T14:05:57;7.50;;;1.40;;
3997;SDS011;61314;53.444;9.902;2022-10-24T14:08:27;2.20;;;1.30;;
3997;SDS011;61314;53.444;9.902;2022-10-24T14:10:56;7.13;;;2.80;;
3997;SDS011;61314;53.444;9.902;2022-10-24T14:13:24;5.43;;;2.13;;
3997;SDS011;61314;53.444;9.902;2022-10-24T14:15:53;4.67;;;2.23;;
3997;SDS011;61314;53.444;9.902;2022-10-24T14:18:20;6.43;;;1.97;;
3997;SDS011;61314;53.444;9.902;2022-10-24T14:20:52;3.33;;;1.50;;
3997;SDS011;61314;53.444;9.902;2022-10-24T14:23:21;7.50;;;2.20;;
3997;SDS011;61314;53.444;9.902;2022-10-24T14:25:53;9.80;;;1.70;;
3997;SDS011;61314;53.444;9.902;2022-10-24T14:28:23;8.93;;;1.47;;
3997;SDS011;61314;53.444;9.902;2022-10-24T14:30:51;3.73;;;1.70;;
3997;SDS011;61314;53.444;9.902;2022-10-24T14:33:21;4.33;;;1.30;;
3997;SDS011;61314;53.444;9.902;2022-10-24T14:35:49;1.77;;;1.30;;
3997;SDS011;61314;53.444;9.902;2022-10-24T14:38:22;5.53;;;2.10;;
3997;SDS011;61314;53.444;9.902;2022-10-24T14:40:49;9.40;;;1.63;;
3997;SDS011;61314;53.444;9.902;2022-10-24T14:43:33;8.73;;;1.70;;
3997;SDS011;61314;53.444;9.902;2022-10-24T14:46:01;5.20;;;1.47;;
3997;SDS011;61314;53.444;9.902;2022-10-24T14:48:30;7.97;;;2.33;;
3997;SDS011;61314;53.444;9.902;2022-10-24T14:51:01;7.50;;;1.67;;
3997;SDS011;61314;53.444;9.902;2022-10-24T14:53:29;3.87;;;1.77;;
3997;SDS011;61314;53.444;9.902;2022-10-24T14:55:57;6.67;;;1.90;;
3997;SDS011;61314;53.444;9.902;2022-10-24T14:58:25;6.63;;;1.67;;
3997;SDS011;61314;53.444;9.902;2022-10-24T15:00:53;14.90;;;3.20;;
3997;SDS011;61314;53.444;9.902;2022-10-24T15:03:22;4.13;;;1.60;;
3997;SDS011;61314;53.444;9.902;2022-10-24T15:05:57;4.50;;;1.93;;
3997;SDS011;61314;53.444;9.902;2022-10-24T15:08:35;6.10;;;1.93;;
3997;SDS011;61314;53.444;9.902;2022-10-24T15:11:12;8.23;;;1.73;;
3997;SDS011;61314;53.444;9.902;2022-10-24T15:13:45;7.27;;;3.20;;
3997;SDS011;61314;53.444;9.902;2022-10-24T15:16:33;5.70;;;1.50;;
3997;SDS011;61314;53.444;9.902;2022-10-24T15:19:02;8.67;;;1.90;;
3997;SDS011;61314;53.444;9.902;2022-10-24T15:21:32;6.83;;;1.67;;
3997;SDS011;61314;53.444;9.902;2022-10-24T15:24:01;13.13;;;1.80;;
3997;SDS011;61314;53.444;9.902;2022-10-24T15:26:35;5.93;;;1.50;;
3997;SDS011;61314;53.444;9.902;2022-10-24T15:31:39;9.00;;;1.47;;
3997;SDS011;61314;53.444;9.902;2022-10-24T15:34:07;2.60;;;1.40;;
3997;SDS011;61314;53.444;9.902;2022-10-24T15:36:40;11.17;;;2.73;;
3997;SDS011;61314;53.444;9.902;2022-10-24T15:39:11;4.07;;;1.60;;
3997;SDS011;61314;53.444;9.902;2022-10-24T15:41:39;4.13;;;1.50;;
3997;SDS011;61314;53.444;9.902;2022-10-24T15:47:05;4.87;;;1.80;;
3997;SDS011;61314;53.444;9.902;2022-10-24T15:49:32;6.80;;;2.20;;
3997;SDS011;61314;53.444;9.902;2022-10-24T15:52:00;9.77;;;2.10;;
3997;SDS011;61314;53.444;9.902;2022-10-24T15:54:29;8.67;;;1.57;;
3997;SDS011;61314;53.444;9.902;2022-10-24T15:56:56;11.60;;;2.60;;
3997;SDS011;61314;53.444;9.902;2022-10-24T15:59:29;8.03;;;2.90;;
3997;SDS011;61314;53.444;9.902;2022-10-24T16:01:56;4.63;;;1.57;;
3997;SDS011;61314;53.444;9.902;2022-10-24T16:04:25;4.23;;;2.80;;
3997;SDS011;61314;53.444;9.902;2022-10-24T16:06:53;10.00;;;2.57;;
3997;SDS011;61314;53.444;9.902;2022-10-24T16:09:21;5.07;;;2.37;;
3997;SDS011;61314;53.444;9.902;2022-10-24T16:11:50;9.17;;;3.33;;
3997;SDS011;61314;53.444;9.902;2022-10-24T16:14:17;7.87;;;3.17;;
3997;SDS011;61314;53.444;9.902;2022-10-24T16:16:45;7.40;;;2.10;;
3997;SDS011;61314;53.444;9.902;2022-10-24T16:19:12;8.67;;;2.80;;
3997;SDS011;61314;53.444;9.902;2022-10-24T16:21:39;2.10;;;1.87;;
3997;SDS011;61314;53.444;9.902;2022-10-24T16:24:07;9.60;;;2.83;;
3997;SDS011;61314;53.444;9.902;2022-10-24T16:26:34;2.80;;;1.60;;
3997;SDS011;61314;53.444;9.902;2022-10-24T16:29:02;7.50;;;1.90;;
3997;SDS011;61314;53.444;9.902;2022-10-24T16:31:29;38.17;;;19.70;;
3997;SDS011;61314;53.444;9.902;2022-10-24T16:33:57;24.03;;;14.53;;
3997;SDS011;61314;53.444;9.902;2022-10-24T16:36:24;11.83;;;6.63;;
3997;SDS011;61314;53.444;9.902;2022-10-24T16:38:52;20.07;;;9.87;;
3997;SDS011;61314;53.444;9.902;2022-10-24T16:41:20;31.00;;;11.40;;
3997;SDS011;61314;53.444;9.902;2022-10-24T16:43:48;5.93;;;3.73;;
3997;SDS011;61314;53.444;9.902;2022-10-24T16:46:17;6.83;;;3.00;;
3997;SDS011;61314;53.444;9.902;2022-10-24T16:48:44;8.47;;;4.77;;